createdAt,value
2018-01-14T00:00:17.764Z,13.90
2018-01-14T00:02:50.441Z,17.63
2018-01-14T00:05:21.663Z,15.23
2018-01-14T00:07:54.405Z,15.27
2018-01-14T00:10:25.986Z,15.67
2018-01-14T00:12:57.494Z,15.13
2018-01-14T00:15:29.329Z,14.20
2018-01-14T00:18:01.132Z,13.97
2018-01-14T00:20:33.024Z,16.02
2018-01-14T00:23:05.174Z,14.33
2018-01-14T00:25:36.645Z,15.32
2018-01-14T00:28:07.791Z,14.85
2018-01-14T00:30:39.218Z,13.80
2018-01-14T00:33:10.704Z,13.63
2018-01-14T00:35:43.068Z,14.95
2018-01-14T00:38:14.468Z,11.90
2018-01-14T00:40:45.935Z,12.67
2018-01-14T00:43:18.749Z,12.73
2018-01-14T00:45:50.489Z,12.93
2018-01-14T00:48:22.379Z,15.65
2018-01-14T00:50:54.225Z,14.27
2018-01-14T00:53:26.313Z,12.23
2018-01-14T00:55:58.551Z,13.77
2018-01-14T00:58:31.123Z,14.40
2018-01-14T01:01:03.189Z,13.52
2018-01-14T01:03:35.308Z,13.40
2018-01-14T01:06:07.217Z,13.47
2018-01-14T01:08:39.113Z,17.87
2018-01-14T01:11:11.334Z,16.00
2018-01-14T01:13:43.225Z,14.13
2018-01-14T01:16:15.424Z,15.37
2018-01-14T01:18:47.509Z,12.87
2018-01-14T01:21:19.163Z,12.85
2018-01-14T01:23:50.928Z,14.53
2018-01-14T01:26:22.543Z,13.40
2018-01-14T01:28:54.800Z,14.40
2018-01-14T01:31:26.558Z,15.80
2018-01-14T01:33:58.151Z,14.67
2018-01-14T01:36:31.160Z,17.20
2018-01-14T01:39:03.148Z,14.83
2018-01-14T01:41:36.033Z,16.67
2018-01-14T01:44:07.597Z,14.68
2018-01-14T01:46:39.353Z,15.98
2018-01-14T01:49:11.876Z,16.17
2018-01-14T01:51:43.337Z,16.73
2018-01-14T01:54:15.660Z,14.98
2018-01-14T01:56:47.592Z,16.17
2018-01-14T01:59:19.393Z,14.52
2018-01-14T02:01:51.245Z,15.47
2018-01-14T02:04:22.835Z,15.07
2018-01-14T02:06:55.463Z,15.05
2018-01-14T02:09:28.294Z,15.47
2018-01-14T02:12:00.085Z,17.53
2018-01-14T02:14:30.915Z,15.30
2018-01-14T02:17:03.468Z,15.43
2018-01-14T02:19:35.980Z,13.93
2018-01-14T02:22:07.540Z,14.47
2018-01-14T02:24:39.065Z,14.07
2018-01-14T02:27:11.011Z,16.83
2018-01-14T02:29:42.445Z,14.97
2018-01-14T02:32:13.879Z,15.40
2018-01-14T02:34:46.065Z,15.87
2018-01-14T02:37:17.514Z,15.33
2018-01-14T02:39:49.791Z,17.45
2018-01-14T02:42:21.887Z,16.40
2018-01-14T02:44:53.801Z,15.53
2018-01-14T02:47:25.436Z,17.37
2018-01-14T02:49:58.149Z,15.57
2018-01-14T02:52:30.374Z,16.73
2018-01-14T02:55:01.898Z,17.63
2018-01-14T02:57:33.454Z,15.30
2018-01-14T03:00:05.700Z,16.25
2018-01-14T03:02:37.560Z,17.30
2018-01-14T03:05:09.875Z,15.98
2018-01-14T03:07:42.126Z,15.25
2018-01-14T03:10:13.660Z,14.37
2018-01-14T03:12:45.548Z,16.27
2018-01-14T03:15:17.911Z,15.67
2018-01-14T03:17:49.615Z,15.70
2018-01-14T03:20:21.138Z,16.73
2018-01-14T03:22:52.541Z,14.40
2018-01-14T03:25:24.129Z,19.00
2018-01-14T03:27:56.531Z,14.17
2018-01-14T03:30:28.824Z,19.50
2018-01-14T03:33:01.550Z,16.67
2018-01-14T03:35:33.764Z,16.42
2018-01-14T03:38:05.538Z,18.07
2018-01-14T03:40:37.651Z,18.00
2018-01-14T03:43:09.739Z,17.03
2018-01-14T03:45:41.879Z,17.37
2018-01-14T03:48:14.418Z,17.23
2018-01-14T03:50:46.529Z,17.13
2018-01-14T03:53:19.623Z,18.07
2018-01-14T03:55:51.433Z,18.77
2018-01-14T03:58:23.047Z,17.87
2018-01-14T04:00:55.104Z,17.97
2018-01-14T04:03:28.315Z,17.25
2018-01-14T04:06:00.604Z,18.73
2018-01-14T04:08:32.923Z,18.98
2018-01-14T04:11:05.216Z,17.03
2018-01-14T04:13:36.631Z,17.00
2018-01-14T04:16:08.059Z,18.87
2018-01-14T05:02:23.142Z,21.33
2018-01-14T05:04:55.462Z,19.30
2018-01-14T05:07:27.082Z,20.95
2018-01-14T05:09:59.712Z,21.70
2018-01-14T05:12:32.175Z,19.12
2018-01-14T05:15:04.990Z,20.63
2018-01-14T05:17:36.582Z,19.77
2018-01-14T05:20:08.763Z,20.63
2018-01-14T05:22:40.504Z,23.13
2018-01-14T05:25:11.945Z,21.67
2018-01-14T05:27:43.681Z,23.73
2018-01-14T05:30:15.971Z,22.73
2018-01-14T05:32:47.529Z,19.93
2018-01-14T05:35:19.076Z,19.77
2018-01-14T05:37:51.076Z,22.93
2018-01-14T05:40:23.147Z,20.58
2018-01-14T05:42:55.096Z,20.00
2018-01-14T05:45:26.530Z,19.67
2018-01-14T05:47:58.260Z,21.08
2018-01-14T05:50:30.880Z,21.53
2018-01-14T05:53:02.910Z,24.07
2018-01-14T05:55:34.473Z,22.43
2018-01-14T05:58:05.859Z,21.20
2018-01-14T06:00:37.451Z,22.90
2018-01-14T06:03:10.160Z,21.80
2018-01-14T06:05:41.816Z,23.30
2018-01-14T06:08:13.315Z,20.37
2018-01-14T06:10:45.209Z,22.73
2018-01-14T06:13:17.407Z,20.87
2018-01-14T06:15:48.898Z,22.73
2018-01-14T06:18:21.517Z,19.47
2018-01-14T06:20:54.229Z,21.37
2018-01-14T06:23:26.224Z,22.13
2018-01-14T06:25:59.267Z,19.77
2018-01-14T06:28:31.172Z,21.47
2018-01-14T06:31:02.875Z,20.60
2018-01-14T06:33:34.687Z,22.53
2018-01-14T06:36:06.233Z,21.63
2018-01-14T06:38:38.909Z,22.80
2018-01-14T06:41:13.196Z,23.13
2018-01-14T06:43:44.983Z,21.20
2018-01-14T06:46:16.935Z,21.43
2018-01-14T06:48:48.248Z,23.02
2018-01-14T06:51:19.671Z,24.40
2018-01-14T06:53:51.673Z,22.47
2018-01-14T06:56:24.064Z,26.05
2018-01-14T06:58:56.982Z,23.85
2018-01-14T07:01:30.292Z,26.90
2018-01-14T07:04:02.481Z,26.83
2018-01-14T07:06:34.450Z,26.90
2018-01-14T07:09:06.840Z,26.10
2018-01-14T07:11:39.712Z,26.50
2018-01-14T07:14:11.684Z,24.40
2018-01-14T07:16:43.997Z,28.17
2018-01-14T07:19:15.764Z,26.63
2018-01-14T07:21:47.573Z,26.10
2018-01-14T07:24:20.847Z,30.60
2018-01-14T07:26:52.943Z,30.80
2018-01-14T07:29:25.687Z,29.90
2018-01-14T07:31:58.541Z,31.05
2018-01-14T07:34:29.846Z,30.98
2018-01-14T07:37:02.012Z,32.50
2018-01-14T07:39:33.636Z,33.38
2018-01-14T07:42:05.442Z,33.15
2018-01-14T07:44:37.311Z,34.45
2018-01-14T07:47:08.956Z,32.50
2018-01-14T07:49:41.297Z,30.67
2018-01-14T07:52:12.915Z,29.83
2018-01-14T07:54:44.877Z,31.15
2018-01-14T07:57:17.209Z,32.55
2018-01-14T07:59:49.020Z,34.42
2018-01-14T08:02:20.377Z,31.55
2018-01-14T08:04:52.650Z,33.83
2018-01-14T08:07:23.998Z,30.65
2018-01-14T08:09:56.657Z,30.83
2018-01-14T08:12:28.878Z,34.90
2018-01-14T08:15:00.680Z,32.80
2018-01-14T08:17:32.088Z,35.33
2018-01-14T08:20:05.095Z,31.62
2018-01-14T08:22:37.330Z,32.97
2018-01-14T08:25:10.282Z,35.42
2018-01-14T08:27:42.070Z,32.58
2018-01-14T08:30:13.588Z,35.80
2018-01-14T08:32:45.035Z,32.20
2018-01-14T08:35:17.191Z,34.20
2018-01-14T08:37:48.655Z,31.40
2018-01-14T08:40:20.162Z,34.67
2018-01-14T08:42:51.865Z,33.33
2018-01-14T08:45:24.596Z,32.45
2018-01-14T08:47:56.360Z,33.03
2018-01-14T08:50:28.042Z,30.05
2018-01-14T08:53:00.541Z,73.30
2018-01-14T08:55:31.866Z,36.20
2018-01-14T08:58:05.655Z,31.02
2018-01-14T09:00:37.234Z,34.30
2018-01-14T09:03:08.824Z,31.52
2018-01-14T09:05:41.078Z,32.75
2018-01-14T09:08:12.540Z,29.02
2018-01-14T09:10:44.680Z,32.03
2018-01-14T09:13:17.049Z,31.55
2018-01-14T09:15:49.435Z,30.65
2018-01-14T09:18:20.807Z,31.05
2018-01-14T09:20:53.304Z,28.30
2018-01-14T09:23:25.224Z,30.45
2018-01-14T09:25:57.286Z,28.50
2018-01-14T09:28:28.952Z,33.93
2018-01-14T09:31:03.506Z,28.27
2018-01-14T09:33:34.945Z,29.87
2018-01-14T09:36:07.420Z,28.08
2018-01-14T09:38:38.755Z,32.10
2018-01-14T09:44:43.506Z,28.50
2018-01-14T09:47:14.623Z,27.50
2018-01-14T09:49:45.935Z,28.65
2018-01-14T09:52:17.372Z,27.77
2018-01-14T09:54:48.944Z,29.58
2018-01-14T09:57:20.008Z,29.80
2018-01-14T09:59:51.249Z,30.03
2018-01-14T10:02:23.954Z,30.92
2018-01-14T10:04:55.549Z,30.37
2018-01-14T10:07:27.154Z,27.97
2018-01-14T10:09:58.432Z,29.65
2018-01-14T10:12:29.592Z,28.03
2018-01-14T10:15:00.864Z,30.90
2018-01-14T10:17:32.490Z,27.42
2018-01-14T10:20:04.581Z,31.60
2018-01-14T10:22:35.873Z,29.00
2018-01-14T10:25:09.369Z,29.12
2018-01-14T10:27:40.742Z,28.53
2018-01-14T10:30:12.032Z,30.25
2018-01-14T10:32:43.447Z,27.70
2018-01-14T10:35:14.883Z,29.73
2018-01-14T10:37:47.610Z,29.37
2018-01-14T10:40:19.007Z,32.95
2018-01-14T10:42:50.602Z,27.08
2018-01-14T10:45:23.021Z,28.10
2018-01-14T10:47:54.350Z,28.70
2018-01-14T10:50:26.240Z,31.13
2018-01-14T10:52:58.700Z,29.23
2018-01-14T10:55:30.171Z,30.93
2018-01-14T10:58:02.059Z,28.10
2018-01-14T11:00:37.662Z,29.70
2018-01-14T11:03:09.059Z,31.73
2018-01-14T11:05:40.464Z,30.23
2018-01-14T11:08:12.688Z,29.77
2018-01-14T11:10:44.037Z,26.63
2018-01-14T11:13:15.697Z,29.93
2018-01-14T11:15:47.306Z,28.03
2018-01-14T11:18:18.639Z,26.33
2018-01-14T11:20:49.868Z,29.80
2018-01-14T11:23:20.964Z,28.38
2018-01-14T11:25:53.264Z,29.73
2018-01-14T11:28:24.943Z,27.07
2018-01-14T11:30:56.329Z,31.40
2018-01-14T11:33:28.546Z,29.03
2018-01-14T11:36:00.092Z,28.03
2018-01-14T11:38:30.899Z,27.00
2018-01-14T11:41:02.156Z,26.17
2018-01-14T11:43:33.940Z,28.00
2018-01-14T11:46:05.985Z,27.10
2018-01-14T11:48:37.385Z,28.73
2018-01-14T11:51:08.904Z,27.40
2018-01-14T11:53:40.174Z,27.92
2018-01-14T11:56:11.950Z,27.57
2018-01-14T11:58:44.032Z,27.53
2018-01-14T12:01:15.382Z,28.97
2018-01-14T12:03:46.701Z,27.13
2018-01-14T12:06:18.116Z,26.57
2018-01-14T12:08:50.493Z,26.07
2018-01-14T12:11:22.199Z,30.70
2018-01-14T12:13:54.012Z,28.13
2018-01-14T12:16:25.464Z,30.27
2018-01-14T12:18:56.961Z,28.30
2018-01-14T12:21:29.190Z,28.47
2018-01-14T12:24:00.750Z,29.97
2018-01-14T12:26:33.039Z,27.40
2018-01-14T12:29:04.578Z,27.03
2018-01-14T12:31:36.100Z,27.47
2018-01-14T12:34:15.933Z,26.00
2018-01-14T12:36:47.711Z,29.17
2018-01-14T12:39:19.858Z,28.23
2018-01-14T12:41:52.972Z,28.33
2018-01-14T12:44:25.071Z,29.37
2018-01-14T12:46:56.594Z,28.70
2018-01-14T12:49:28.384Z,28.97
2018-01-14T12:52:01.950Z,27.10
2018-01-14T12:54:33.317Z,31.60
2018-01-14T12:57:04.858Z,28.63
2018-01-14T12:59:37.106Z,28.10
2018-01-14T13:02:08.643Z,26.90
2018-01-14T13:04:41.183Z,26.03
2018-01-14T13:07:12.654Z,31.70
2018-01-14T13:09:43.948Z,27.43
2018-01-14T13:12:15.364Z,28.03
2018-01-14T13:14:47.070Z,29.33
2018-01-14T13:17:18.785Z,29.63
2018-01-14T13:19:49.969Z,28.73
2018-01-14T13:22:20.995Z,27.33
2018-01-14T13:24:51.730Z,29.87
2018-01-14T13:27:22.606Z,26.27
2018-01-14T13:29:53.357Z,31.23
2018-01-14T13:32:24.399Z,26.97
2018-01-14T13:34:55.132Z,27.83
2018-01-14T13:37:25.844Z,28.10
2018-01-14T13:39:56.666Z,27.40
2018-01-14T13:42:28.254Z,27.17
2018-01-14T13:44:59.089Z,28.00
2018-01-14T13:47:29.804Z,28.47
2018-01-14T13:50:00.475Z,29.57
2018-01-14T13:52:31.454Z,28.30
2018-01-14T13:55:02.925Z,28.87
2018-01-14T13:57:33.728Z,27.80
2018-01-14T14:00:04.688Z,29.73
2018-01-14T14:02:35.485Z,29.67
2018-01-14T14:05:06.602Z,28.27
2018-01-14T14:07:37.339Z,27.53
2018-01-14T14:10:08.090Z,27.73
2018-01-14T14:12:38.858Z,26.73
2018-01-14T14:15:10.356Z,29.73
2018-01-14T14:17:41.508Z,27.13
2018-01-14T14:20:12.240Z,24.63
2018-01-14T14:22:43.000Z,29.60
2018-01-14T14:25:13.776Z,26.53
2018-01-14T14:27:44.588Z,29.80
2018-01-14T14:30:16.142Z,30.57
2018-01-14T14:32:46.931Z,25.73
2018-01-14T14:35:17.774Z,27.93
2018-01-14T14:37:48.545Z,26.77
2018-01-14T14:40:20.033Z,29.63
2018-01-14T14:42:50.808Z,26.60
2018-01-14T14:45:21.550Z,25.17
2018-01-14T14:47:53.271Z,28.23
2018-01-14T14:50:23.974Z,26.47
2018-01-14T14:52:54.721Z,29.07
2018-01-14T14:55:25.446Z,29.57
2018-01-14T14:57:56.173Z,30.57
2018-01-14T15:00:26.932Z,30.13
2018-01-14T15:02:58.203Z,27.87
2018-01-14T15:05:29.708Z,26.20
2018-01-14T15:08:00.420Z,30.00
2018-01-14T15:10:31.128Z,29.90
2018-01-14T15:13:02.699Z,26.30
2018-01-14T15:15:33.448Z,32.10
2018-01-14T15:18:05.402Z,32.90
2018-01-14T15:20:36.346Z,36.47
2018-01-14T15:23:07.050Z,31.77
2018-01-14T15:25:38.518Z,33.33
2018-01-14T15:28:09.344Z,31.70
2018-01-14T15:30:40.581Z,32.87
2018-01-14T15:33:12.227Z,31.87
2018-01-14T15:35:44.034Z,31.55
2018-01-14T15:38:14.767Z,31.37
2018-01-14T15:40:45.478Z,31.60
2018-01-14T15:43:16.262Z,35.38
2018-01-14T15:45:47.036Z,32.45
2018-01-14T15:48:18.060Z,33.27
2018-01-14T15:50:49.924Z,37.42
2018-01-14T15:53:20.794Z,35.90
2018-01-14T15:55:51.827Z,36.88
2018-01-14T15:58:22.997Z,35.00
2018-01-14T16:00:54.751Z,35.88
2018-01-14T16:03:25.509Z,32.20
2018-01-14T16:05:57.358Z,38.95
2018-01-14T16:08:28.174Z,34.58
2018-01-14T16:10:58.969Z,33.20
2018-01-14T16:13:29.873Z,35.22
2018-01-14T16:16:00.654Z,36.15
2018-01-14T16:18:31.713Z,33.22
2018-01-14T16:21:03.289Z,34.08
2018-01-14T16:23:34.106Z,35.60
2018-01-14T16:26:04.872Z,33.58
2018-01-14T16:28:36.356Z,32.78
2018-01-14T16:31:07.064Z,30.58
2018-01-14T16:33:37.903Z,32.00
2018-01-14T16:36:08.937Z,31.25
2018-01-14T16:38:39.707Z,30.33
2018-01-14T16:41:10.436Z,32.05
2018-01-14T16:43:41.146Z,46.08
2018-01-14T16:46:11.917Z,29.90
2018-01-14T16:48:42.982Z,30.73
2018-01-14T16:51:14.050Z,31.83
2018-01-14T16:53:44.831Z,31.98
2018-01-14T16:56:15.526Z,31.60
2018-01-14T16:58:46.260Z,31.65
2018-01-14T17:01:17.039Z,33.08
2018-01-14T17:03:47.826Z,31.17
2018-01-14T17:09:52.405Z,29.63
2018-01-14T17:12:23.441Z,33.17
2018-01-14T17:14:54.215Z,35.10
2018-01-14T17:17:25.808Z,34.40
2018-01-14T17:19:56.583Z,32.53
2018-01-14T17:22:27.379Z,34.05
2018-01-14T17:24:58.449Z,29.63
2018-01-14T17:27:29.219Z,33.53
2018-01-14T17:29:59.994Z,34.60
2018-01-14T17:32:30.724Z,31.75
2018-01-14T17:35:01.527Z,33.28
2018-01-14T17:37:32.299Z,33.10
2018-01-14T17:40:03.071Z,34.65
2018-01-14T17:42:34.907Z,31.05
2018-01-14T17:45:05.683Z,33.63
2018-01-14T17:47:36.504Z,31.52
2018-01-14T17:50:07.554Z,33.75
2018-01-14T17:52:38.355Z,32.53
2018-01-14T17:55:09.430Z,32.15
2018-01-14T17:57:40.298Z,31.17
2018-01-14T18:00:11.881Z,30.08
2018-01-14T18:02:42.669Z,30.02
2018-01-14T18:05:13.462Z,35.28
2018-01-14T18:07:44.305Z,32.30
2018-01-14T18:10:15.849Z,34.63
2018-01-14T18:12:46.978Z,33.97
2018-01-14T18:15:17.809Z,32.88
2018-01-14T18:17:48.538Z,34.63
2018-01-14T18:20:19.484Z,33.67
2018-01-14T18:22:50.280Z,32.45
2018-01-14T18:25:21.308Z,32.45
2018-01-14T18:27:52.241Z,28.83
2018-01-14T18:30:23.500Z,32.08
2018-01-14T18:32:54.320Z,31.33
2018-01-14T18:35:25.080Z,32.33
2018-01-14T18:37:55.802Z,32.55
2018-01-14T18:40:26.529Z,31.02
2018-01-14T18:42:57.542Z,32.90
2018-01-14T18:45:36.849Z,31.75
2018-01-14T18:48:07.878Z,34.00
2018-01-14T18:50:39.337Z,34.17
2018-01-14T18:53:10.160Z,31.75
2018-01-14T18:55:41.307Z,32.78
2018-01-14T18:58:12.053Z,32.10
2018-01-14T19:00:42.778Z,34.45
2018-01-14T19:03:13.869Z,31.00
2018-01-14T19:05:44.626Z,35.75
2018-01-14T19:08:16.228Z,35.83
2018-01-14T19:10:48.116Z,30.23
2018-01-14T19:13:18.922Z,34.85
2018-01-14T19:15:51.496Z,31.27
2018-01-14T19:18:23.473Z,35.03
2018-01-14T19:20:54.363Z,35.13
2018-01-14T19:23:25.183Z,36.38
2018-01-14T19:25:56.047Z,35.85
2018-01-14T19:28:26.841Z,32.55
2018-01-14T19:30:57.716Z,35.50
2018-01-14T19:33:29.552Z,33.03
2018-01-14T19:36:01.147Z,32.25
2018-01-14T19:38:31.933Z,33.75
2018-01-14T19:41:02.727Z,32.65
2018-01-14T19:43:33.510Z,40.12
2018-01-14T19:46:04.316Z,42.83
2018-01-14T19:48:35.355Z,37.42
2018-01-14T19:51:06.176Z,35.75
2018-01-14T19:53:37.014Z,38.58
2018-01-14T19:56:07.790Z,35.15
2018-01-14T19:58:38.538Z,36.13
2018-01-14T20:01:09.620Z,37.38
2018-01-14T20:03:40.451Z,36.45
2018-01-14T20:06:11.224Z,35.08
2018-01-14T20:08:42.071Z,32.70
2018-01-14T20:11:12.878Z,34.53
2018-01-14T20:13:43.936Z,39.15
2018-01-14T20:16:14.706Z,35.95
2018-01-14T20:18:46.224Z,39.10
2018-01-14T20:21:17.255Z,34.17
2018-01-14T20:23:48.754Z,38.63
2018-01-14T20:26:19.533Z,40.78
2018-01-14T20:28:50.350Z,36.97
2018-01-14T20:31:21.269Z,37.60
2018-01-14T20:33:52.556Z,38.78
2018-01-14T20:36:23.404Z,41.10
2018-01-14T20:38:54.133Z,39.88
2018-01-14T20:41:24.960Z,39.38
2018-01-14T20:43:56.008Z,37.35
2018-01-14T20:46:28.183Z,38.17
2018-01-14T20:48:58.913Z,37.67
2018-01-14T20:51:30.047Z,41.15
2018-01-14T20:54:00.814Z,40.42
2018-01-14T20:56:32.358Z,38.55
2018-01-14T20:59:04.330Z,39.97
2018-01-14T21:01:36.096Z,40.80
2018-01-14T21:04:06.982Z,37.10
2018-01-14T21:06:37.738Z,38.10
2018-01-14T21:09:09.273Z,40.12
2018-01-14T21:11:40.006Z,40.25
2018-01-14T21:14:11.867Z,39.40
2018-01-14T21:16:42.685Z,36.10
2018-01-14T21:19:13.532Z,39.67
2018-01-14T21:21:44.398Z,38.75
2018-01-14T21:24:15.190Z,39.88
2018-01-14T21:26:45.926Z,38.92
2018-01-14T21:29:16.730Z,37.20
2018-01-14T21:31:47.786Z,37.00
2018-01-14T21:34:18.743Z,41.03
2018-01-14T21:36:49.642Z,38.70
2018-01-14T21:39:20.406Z,39.00
2018-01-14T21:41:51.190Z,35.30
2018-01-14T21:44:22.409Z,38.60
2018-01-14T21:46:53.563Z,36.47
2018-01-14T21:49:25.232Z,39.88
2018-01-14T21:51:55.979Z,38.92
2018-01-14T21:54:27.357Z,39.30
2018-01-14T21:56:58.270Z,39.70
2018-01-14T21:59:29.124Z,41.88
2018-01-14T22:02:00.178Z,36.13
2018-01-14T22:04:30.940Z,40.22
2018-01-14T22:07:02.446Z,40.50
2018-01-14T22:09:33.202Z,42.67
2018-01-14T22:12:04.078Z,41.08
2018-01-14T22:14:35.283Z,38.50
2018-01-14T22:17:06.112Z,41.35
2018-01-14T22:19:37.575Z,40.33
2018-01-14T22:22:08.472Z,37.85
2018-01-14T22:24:40.042Z,40.58
2018-01-14T22:27:10.824Z,39.58
2018-01-14T22:29:42.342Z,40.35
2018-01-14T22:32:13.653Z,39.10
2018-01-14T22:34:44.482Z,43.10
2018-01-14T22:37:15.308Z,43.22
2018-01-14T22:39:46.091Z,41.78
2018-01-14T22:42:16.855Z,43.67
2018-01-14T22:44:49.347Z,42.25
2018-01-14T22:47:20.174Z,43.70
2018-01-14T22:49:50.943Z,41.17
2018-01-14T22:52:22.662Z,42.40
2018-01-14T22:54:53.451Z,41.20
2018-01-14T22:57:24.294Z,46.03
2018-01-14T22:59:55.222Z,44.78
2018-01-14T23:02:26.275Z,40.15
2018-01-14T23:04:57.896Z,39.92
2018-01-14T23:07:28.651Z,43.95
2018-01-14T23:09:59.379Z,43.78
2018-01-14T23:12:30.104Z,46.13
2018-01-14T23:15:05.315Z,41.72
2018-01-14T23:17:36.052Z,43.65
2018-01-14T23:20:06.822Z,41.75
2018-01-14T23:22:37.940Z,43.95
2018-01-14T23:25:08.776Z,45.22
2018-01-14T23:27:39.511Z,42.80
2018-01-14T23:30:10.319Z,44.83
2018-01-14T23:32:41.374Z,43.70
2018-01-14T23:35:12.121Z,43.83
2018-01-14T23:37:42.931Z,42.90
2018-01-14T23:40:15.260Z,43.45
2018-01-14T23:42:46.740Z,45.30
2018-01-14T23:45:18.021Z,44.72
2018-01-14T23:47:48.838Z,47.15
2018-01-14T23:50:19.647Z,45.42
2018-01-14T23:52:50.960Z,43.90
2018-01-14T23:55:21.752Z,45.75
2018-01-14T23:57:52.496Z,46.80
